Astoria Regional Airport Astoria US
ICAO: KAST
IATA: AST
Category: Medium
Scheduled Services: No

Elevation: 15 ft
TransAlt. 18000 ft.

Airport Communications:
ASOS:135.375
SEATTLE CNTR:124.2
AIR CG:38.18
MC MINNVILLE RDO:122.3
CTAF/UNICOM:122.8

KAST Zoom In..

Runways:

(A) RW 08 length 5795 ft width 100 ft
---- / hdg 77

(B) RW 13 length 4996 ft width 100 ft
---- / hdg 135

(C) RW 26 length 5795 ft width 100 ft
ILS 109.50 / hdg 257

(D) RW 31 length 4996 ft width 100 ft
---- / hdg 315

Location; KAST
Day. 29 / Time. 21.55 Zulu
* Altimeter: 29.96
* Temperature: 17° c. 62.6°f.
* Wind from: 310° Speed 16 kn with Gusts up to 22 kn.
Dewpoint: 11° c.
Visibility: 10 Statute Miles.
Clouds: Clear (automated report).

KAST 292155Z AUTO 31016G22KT 10SM CLR 17/11 A2996 RMK AO2 SLP146 T01670106


Wind From 310°
Speed 16 kn.

 
 
jpsmedia worldairports.se 2020   terms of use